Terminal Aerodrome Forecast
Issued by NWS Paducah, KY

Home | Current Version | Previous Version | Text Only | Print | Product List | Glossary On
Versions: 1 2 3 4 5 6 7 8 9 10 11 12 13 14 15 16
603
FTUS43 KPAH 090532
TAFEVV
TAF
KEVV 090532Z 0906/1006 32012KT P6SM -SN BKN030 OVC045
      TEMPO 0917/0920 3SM -SN BR OVC030=

USA.gov is the U.S. government's official web portal to all federal, state and local government web resources and services.